sensor_id;sensor_type;location;lat;lon;timestamp;pressure;altitude;pressure_sealevel;temperature;humidity
62800;BME280;48842;51.046;13.796;2023-02-28T00:00:22;101771.19;;;3.98;nan
62800;BME280;48842;51.046;13.796;2023-02-28T00:02:47;101770.16;;;3.94;nan
62800;BME280;48842;51.046;13.796;2023-02-28T00:05:15;101763.88;;;3.91;nan
62800;BME280;48842;51.046;13.796;2023-02-28T00:07:40;101770.69;;;3.89;nan
62800;BME280;48842;51.046;13.796;2023-02-28T00:10:09;101766.41;;;3.89;nan
62800;BME280;48842;51.046;13.796;2023-02-28T00:12:35;101770.63;;;3.87;nan
62800;BME280;48842;51.046;13.796;2023-02-28T00:15:01;101762.84;;;3.87;nan
62800;BME280;48842;51.046;13.796;2023-02-28T00:17:27;101762.00;;;3.88;nan
62800;BME280;48842;51.046;13.796;2023-02-28T00:19:52;101758.44;;;3.86;nan
62800;BME280;48842;51.046;13.796;2023-02-28T00:22:19;101755.88;;;3.86;nan
62800;BME280;48842;51.046;13.796;2023-02-28T00:24:45;101755.88;;;3.86;nan
62800;BME280;48842;51.046;13.796;2023-02-28T00:27:11;101754.06;;;3.85;nan
62800;BME280;48842;51.046;13.796;2023-02-28T00:29:36;101760.88;;;3.83;nan
62800;BME280;48842;51.046;13.796;2023-02-28T00:32:02;101759.16;;;3.83;nan
62800;BME280;48842;51.046;13.796;2023-02-28T00:34:27;101757.28;;;3.81;nan
62800;BME280;48842;51.046;13.796;2023-02-28T00:36:53;101755.53;;;3.80;nan
62800;BME280;48842;51.046;13.796;2023-02-28T00:39:18;101762.41;;;3.79;nan
62800;BME280;48842;51.046;13.796;2023-02-28T00:41:43;101757.13;;;3.78;nan
62800;BME280;48842;51.046;13.796;2023-02-28T00:44:08;101765.75;;;3.77;nan
62800;BME280;48842;51.046;13.796;2023-02-28T00:46:34;101762.16;;;3.75;nan
62800;BME280;48842;51.046;13.796;2023-02-28T00:48:59;101762.16;;;3.75;nan
62800;BME280;48842;51.046;13.796;2023-02-28T00:51:24;101768.25;;;3.75;nan
62800;BME280;48842;51.046;13.796;2023-02-28T00:53:50;101770.91;;;3.77;nan
62800;BME280;48842;51.046;13.796;2023-02-28T00:56:15;101760.56;;;3.77;nan
62800;BME280;48842;51.046;13.796;2023-02-28T00:58:40;101751.78;;;3.75;nan
62800;BME280;48842;51.046;13.796;2023-02-28T01:01:06;101756.97;;;3.75;nan
62800;BME280;48842;51.046;13.796;2023-02-28T01:03:31;101756.97;;;3.75;nan
62800;BME280;48842;51.046;13.796;2023-02-28T01:05:56;101756.97;;;3.75;nan
62800;BME280;48842;51.046;13.796;2023-02-28T01:08:22;101751.88;;;3.76;nan
62800;BME280;48842;51.046;13.796;2023-02-28T01:10:47;101757.06;;;3.76;nan
62800;BME280;48842;51.046;13.796;2023-02-28T01:13:13;101767.50;;;3.78;nan
62800;BME280;48842;51.046;13.796;2023-02-28T01:15:45;101764.03;;;3.77;nan
62800;BME280;48842;51.046;13.796;2023-02-28T01:18:13;101764.91;;;3.78;nan
62800;BME280;48842;51.046;13.796;2023-02-28T01:20:38;101760.56;;;3.77;nan
62800;BME280;48842;51.046;13.796;2023-02-28T01:23:04;101757.78;;;3.74;nan
62800;BME280;48842;51.046;13.796;2023-02-28T01:25:29;101761.19;;;3.73;nan
62800;BME280;48842;51.046;13.796;2023-02-28T01:27:54;101758.53;;;3.71;nan
62800;BME280;48842;51.046;13.796;2023-02-28T01:30:20;101759.22;;;3.69;nan
62800;BME280;48842;51.046;13.796;2023-02-28T01:32:45;101757.53;;;3.69;nan
62800;BME280;48842;51.046;13.796;2023-02-28T01:35:10;101762.00;;;3.72;nan
62800;BME280;48842;51.046;13.796;2023-02-28T01:37:36;101754.22;;;3.72;nan
62800;BME280;48842;51.046;13.796;2023-02-28T01:40:01;101749.75;;;3.69;nan
62800;BME280;48842;51.046;13.796;2023-02-28T01:42:26;101755.75;;;3.68;nan
62800;BME280;48842;51.046;13.796;2023-02-28T01:44:59;101747.72;;;3.63;nan
62800;BME280;48842;51.046;13.796;2023-02-28T01:47:33;101747.53;;;3.60;nan
62800;BME280;48842;51.046;13.796;2023-02-28T01:50:00;101752.72;;;3.60;nan
62800;BME280;48842;51.046;13.796;2023-02-28T01:52:27;101745.50;;;3.55;nan
62800;BME280;48842;51.046;13.796;2023-02-28T01:54:58;101748.84;;;3.52;nan
62800;BME280;48842;51.046;13.796;2023-02-28T01:57:29;101749.56;;;3.49;nan
62800;BME280;48842;51.046;13.796;2023-02-28T02:00:06;101746.88;;;3.48;nan
62800;BME280;48842;51.046;13.796;2023-02-28T02:02:33;101749.38;;;3.46;nan
62800;BME280;48842;51.046;13.796;2023-02-28T02:05:04;101745.09;;;3.47;nan
62800;BME280;48842;51.046;13.796;2023-02-28T02:07:33;101741.53;;;3.45;nan
62800;BME280;48842;51.046;13.796;2023-02-28T02:12:58;101748.22;;;3.41;nan
62800;BME280;48842;51.046;13.796;2023-02-28T02:15:31;101742.06;;;3.39;nan
62800;BME280;48842;51.046;13.796;2023-02-28T02:18:04;101744.66;;;3.39;nan
62800;BME280;48842;51.046;13.796;2023-02-28T02:23:11;101745.38;;;3.37;nan
62800;BME280;48842;51.046;13.796;2023-02-28T02:25:54;101733.22;;;3.36;nan
62800;BME280;48842;51.046;13.796;2023-02-28T02:31:29;101742.00;;;3.38;nan
62800;BME280;48842;51.046;13.796;2023-02-28T02:34:05;101739.22;;;3.35;nan
62800;BME280;48842;51.046;13.796;2023-02-28T02:36:41;101731.38;;;3.33;nan
62800;BME280;48842;51.046;13.796;2023-02-28T02:39:19;101738.25;;;3.32;nan
62800;BME280;48842;51.046;13.796;2023-02-28T02:41:51;101733.88;;;3.31;nan
62800;BME280;48842;51.046;13.796;2023-02-28T02:44:24;101742.44;;;3.30;nan
62800;BME280;48842;51.046;13.796;2023-02-28T02:46:59;101741.44;;;3.28;nan
62800;BME280;48842;51.046;13.796;2023-02-28T02:49:30;101740.50;;;3.26;nan
62800;BME280;48842;51.046;13.796;2023-02-28T02:51:57;101742.19;;;3.26;nan
62800;BME280;48842;51.046;13.796;2023-02-28T02:54:29;101742.03;;;3.23;nan
62800;BME280;48842;51.046;13.796;2023-02-28T02:57:04;101748.09;;;3.23;nan
62800;BME280;48842;51.046;13.796;2023-02-28T02:59:31;101744.63;;;3.23;nan
62800;BME280;48842;51.046;13.796;2023-02-28T03:02:00;101746.22;;;3.21;nan
62800;BME280;48842;51.046;13.796;2023-02-28T03:04:31;101743.44;;;3.18;nan
62800;BME280;48842;51.046;13.796;2023-02-28T03:06:58;101745.94;;;3.16;nan
62800;BME280;48842;51.046;13.796;2023-02-28T03:09:25;101752.91;;;3.17;nan
62800;BME280;48842;51.046;13.796;2023-02-28T03:11:52;101746.84;;;3.17;nan
62800;BME280;48842;51.046;13.796;2023-02-28T03:14:34;101743.34;;;3.16;nan
62800;BME280;48842;51.046;13.796;2023-02-28T03:17:32;101742.41;;;3.14;nan
62800;BME280;48842;51.046;13.796;2023-02-28T03:20:06;101746.75;;;3.15;nan
62800;BME280;48842;51.046;13.796;2023-02-28T03:22:53;101745.69;;;3.11;nan
62800;BME280;48842;51.046;13.796;2023-02-28T03:25:30;101743.03;;;3.10;nan
62800;BME280;48842;51.046;13.796;2023-02-28T03:28:52;101741.06;;;3.06;nan
62800;BME280;48842;51.046;13.796;2023-02-28T03:31:03;101737.38;;;3.02;nan
62800;BME280;48842;51.046;13.796;2023-02-28T03:33:38;101734.53;;;2.97;nan
62800;BME280;48842;51.046;13.796;2023-02-28T03:36:13;101735.16;;;2.93;nan
62800;BME280;48842;51.046;13.796;2023-02-28T03:38:45;101742.75;;;2.90;nan
62800;BME280;48842;51.046;13.796;2023-02-28T03:41:15;101742.56;;;2.87;nan
62800;BME280;48842;51.046;13.796;2023-02-28T03:43:50;101736.34;;;2.84;nan
62800;BME280;48842;51.046;13.796;2023-02-28T03:46:20;101746.44;;;2.79;nan
62800;BME280;48842;51.046;13.796;2023-02-28T03:48:52;101749.63;;;2.75;nan
62800;BME280;48842;51.046;13.796;2023-02-28T03:51:21;101739.91;;;2.71;nan
62800;BME280;48842;51.046;13.796;2023-02-28T03:53:53;101748.28;;;2.67;nan
62800;BME280;48842;51.046;13.796;2023-02-28T03:56:24;101750.69;;;2.64;nan
62800;BME280;48842;51.046;13.796;2023-02-28T03:59:00;101754.69;;;2.58;nan
62800;BME280;48842;51.046;13.796;2023-02-28T04:01:35;101752.00;;;2.57;nan
62800;BME280;48842;51.046;13.796;2023-02-28T04:04:02;101745.78;;;2.53;nan
62800;BME280;48842;51.046;13.796;2023-02-28T04:06:30;101754.31;;;2.52;nan
62800;BME280;48842;51.046;13.796;2023-02-28T04:08:56;101763.69;;;2.50;nan
62800;BME280;48842;51.046;13.796;2023-02-28T04:11:37;101759.22;;;2.48;nan
62800;BME280;48842;51.046;13.796;2023-02-28T04:14:04;101765.09;;;2.45;nan
62800;BME280;48842;51.046;13.796;2023-02-28T04:16:30;101770.09;;;2.42;nan
62800;BME280;48842;51.046;13.796;2023-02-28T04:18:55;101769.91;;;2.39;nan
62800;BME280;48842;51.046;13.796;2023-02-28T04:21:49;101773.09;;;2.35;nan
62800;BME280;48842;51.046;13.796;2023-02-28T04:24:20;101775.41;;;2.30;nan
62800;BME280;48842;51.046;13.796;2023-02-28T04:26:49;101774.34;;;2.26;nan
62800;BME280;48842;51.046;13.796;2023-02-28T04:31:48;101779.34;;;2.23;nan
62800;BME280;48842;51.046;13.796;2023-02-28T04:34:13;101789.47;;;2.20;nan
62800;BME280;48842;51.046;13.796;2023-02-28T04:36:38;101776.53;;;2.20;nan
62800;BME280;48842;51.046;13.796;2023-02-28T04:39:04;101781.59;;;2.19;nan
62800;BME280;48842;51.046;13.796;2023-02-28T04:41:29;101784.09;;;2.17;nan
62800;BME280;48842;51.046;13.796;2023-02-28T04:43:54;101785.53;;;2.12;nan
62800;BME280;48842;51.046;13.796;2023-02-28T04:46:22;101783.53;;;2.08;nan
62800;BME280;48842;51.046;13.796;2023-02-28T04:48:47;101786.03;;;2.06;nan
62800;BME280;48842;51.046;13.796;2023-02-28T04:51:14;101783.34;;;2.05;nan
62800;BME280;48842;51.046;13.796;2023-02-28T04:53:41;101780.69;;;2.03;nan
62800;BME280;48842;51.046;13.796;2023-02-28T04:56:08;101778.88;;;2.02;nan
62800;BME280;48842;51.046;13.796;2023-02-28T04:58:35;101782.16;;;2.00;nan
62800;BME280;48842;51.046;13.796;2023-02-28T05:01:30;101787.16;;;1.97;nan
62800;BME280;48842;51.046;13.796;2023-02-28T05:03:58;101788.66;;;1.93;nan
62800;BME280;48842;51.046;13.796;2023-02-28T05:06:25;101787.66;;;1.91;nan
62800;BME280;48842;51.046;13.796;2023-02-28T05:08:51;101786.69;;;1.89;nan
62800;BME280;48842;51.046;13.796;2023-02-28T05:11:23;101790.97;;;1.88;nan
62800;BME280;48842;51.046;13.796;2023-02-28T05:13:49;101797.88;;;1.89;nan
62800;BME280;48842;51.046;13.796;2023-02-28T05:16:16;101797.09;;;1.90;nan
62800;BME280;48842;51.046;13.796;2023-02-28T05:18:42;101796.22;;;1.90;nan
62800;BME280;48842;51.046;13.796;2023-02-28T05:23:45;101806.25;;;1.85;nan
62800;BME280;48842;51.046;13.796;2023-02-28T05:26:10;101797.50;;;1.83;nan
62800;BME280;48842;51.046;13.796;2023-02-28T05:28:35;101807.84;;;1.83;nan
62800;BME280;48842;51.046;13.796;2023-02-28T05:31:01;101795.63;;;1.81;nan
62800;BME280;48842;51.046;13.796;2023-02-28T05:33:27;101807.56;;;1.79;nan
62800;BME280;48842;51.046;13.796;2023-02-28T05:35:52;101803.19;;;1.78;nan
62800;BME280;48842;51.046;13.796;2023-02-28T05:38:17;101807.47;;;1.77;nan
62800;BME280;48842;51.046;13.796;2023-02-28T05:40:42;101810.03;;;1.77;nan
62800;BME280;48842;51.046;13.796;2023-02-28T05:43:10;101808.25;;;1.76;nan
62800;BME280;48842;51.046;13.796;2023-02-28T05:45:35;101805.47;;;1.73;nan
62800;BME280;48842;51.046;13.796;2023-02-28T05:48:00;101810.44;;;1.70;nan
62800;BME280;48842;51.046;13.796;2023-02-28T05:50:26;101810.44;;;1.70;nan
62800;BME280;48842;51.046;13.796;2023-02-28T05:52:51;101806.84;;;1.68;nan
62800;BME280;48842;51.046;13.796;2023-02-28T05:55:17;101818.97;;;1.69;nan
62800;BME280;48842;51.046;13.796;2023-02-28T05:57:43;101819.66;;;1.66;nan
62800;BME280;48842;51.046;13.796;2023-02-28T06:00:09;101813.63;;;1.66;nan
62800;BME280;48842;51.046;13.796;2023-02-28T06:02:34;101822.16;;;1.65;nan
62800;BME280;48842;51.046;13.796;2023-02-28T06:05:00;101820.41;;;1.64;nan
62800;BME280;48842;51.046;13.796;2023-02-28T06:07:25;101825.56;;;1.64;nan
62800;BME280;48842;51.046;13.796;2023-02-28T06:09:50;101826.34;;;1.63;nan
62800;BME280;48842;51.046;13.796;2023-02-28T06:12:15;101826.44;;;1.64;nan
62800;BME280;48842;51.046;13.796;2023-02-28T06:14:40;101827.41;;;1.66;nan
62800;BME280;48842;51.046;13.796;2023-02-28T06:17:06;101820.59;;;1.67;nan
62800;BME280;48842;51.046;13.796;2023-02-28T06:19:31;101829.13;;;1.66;nan
62800;BME280;48842;51.046;13.796;2023-02-28T06:21:57;101833.41;;;1.65;nan
62800;BME280;48842;51.046;13.796;2023-02-28T06:24:23;101836.28;;;1.70;nan
62800;BME280;48842;51.046;13.796;2023-02-28T06:26:49;101841.72;;;1.74;nan
62800;BME280;48842;51.046;13.796;2023-02-28T06:29:15;101839.25;;;1.76;nan
62800;BME280;48842;51.046;13.796;2023-02-28T06:31:44;101845.38;;;1.78;nan
62800;BME280;48842;51.046;13.796;2023-02-28T06:34:10;101845.38;;;1.78;nan
62800;BME280;48842;51.046;13.796;2023-02-28T06:36:38;101847.19;;;1.79;nan
62800;BME280;48842;51.046;13.796;2023-02-28T06:39:03;101849.00;;;1.80;nan
62800;BME280;48842;51.046;13.796;2023-02-28T06:41:28;101860.28;;;1.82;nan
62800;BME280;48842;51.046;13.796;2023-02-28T06:43:53;101870.72;;;1.84;nan
62800;BME280;48842;51.046;13.796;2023-02-28T06:46:19;101864.78;;;1.85;nan
62800;BME280;48842;51.046;13.796;2023-02-28T06:48:45;101869.25;;;1.87;nan
62800;BME280;48842;51.046;13.796;2023-02-28T06:51:18;101872.03;;;1.90;nan
62800;BME280;48842;51.046;13.796;2023-02-28T06:53:45;101876.69;;;1.96;nan
62800;BME280;48842;51.046;13.796;2023-02-28T06:56:13;101876.09;;;2.00;nan
62800;BME280;48842;51.046;13.796;2023-02-28T06:58:38;101880.88;;;2.07;nan
62800;BME280;48842;51.046;13.796;2023-02-28T07:01:05;101883.34;;;2.19;nan
62800;BME280;48842;51.046;13.796;2023-02-28T07:03:30;101881.41;;;2.30;nan
62800;BME280;48842;51.046;13.796;2023-02-28T07:05:56;101878.50;;;2.39;nan
62800;BME280;48842;51.046;13.796;2023-02-28T07:08:23;101878.38;;;2.51;nan
62800;BME280;48842;51.046;13.796;2023-02-28T07:10:51;101882.69;;;2.65;nan
62800;BME280;48842;51.046;13.796;2023-02-28T07:13:17;101886.16;;;2.79;nan
62800;BME280;48842;51.046;13.796;2023-02-28T07:15:42;101886.00;;;2.91;nan
62800;BME280;48842;51.046;13.796;2023-02-28T07:18:07;101880.56;;;3.01;nan
62800;BME280;48842;51.046;13.796;2023-02-28T07:20:32;101885.41;;;3.10;nan
62800;BME280;48842;51.046;13.796;2023-02-28T07:22:57;101877.09;;;3.16;nan
62800;BME280;48842;51.046;13.796;2023-02-28T07:25:28;101876.38;;;3.18;nan
62800;BME280;48842;51.046;13.796;2023-02-28T07:27:54;101882.53;;;3.20;nan
62800;BME280;48842;51.046;13.796;2023-02-28T07:30:20;101879.59;;;3.29;nan
62800;BME280;48842;51.046;13.796;2023-02-28T07:32:45;101877.28;;;3.48;nan
62800;BME280;48842;51.046;13.796;2023-02-28T07:35:11;101879.69;;;3.60;nan
62800;BME280;48842;51.046;13.796;2023-02-28T07:37:36;101873.69;;;3.61;nan
62800;BME280;48842;51.046;13.796;2023-02-28T07:40:07;101876.13;;;3.58;nan
62800;BME280;48842;51.046;13.796;2023-02-28T07:42:35;101885.31;;;3.53;nan
62800;BME280;48842;51.046;13.796;2023-02-28T07:45:00;101876.47;;;3.49;nan
62800;BME280;48842;51.046;13.796;2023-02-28T07:47:26;101879.94;;;3.50;nan
62800;BME280;48842;51.046;13.796;2023-02-28T07:49:51;101881.41;;;3.45;nan
62800;BME280;48842;51.046;13.796;2023-02-28T07:52:17;101886.09;;;3.37;nan
62800;BME280;48842;51.046;13.796;2023-02-28T07:54:42;101892.19;;;3.38;nan
62800;BME280;48842;51.046;13.796;2023-02-28T07:57:07;101882.09;;;3.42;nan
62800;BME280;48842;51.046;13.796;2023-02-28T07:59:33;101891.03;;;3.47;nan
62800;BME280;48842;51.046;13.796;2023-02-28T08:01:58;101887.00;;;3.53;nan
62800;BME280;48842;51.046;13.796;2023-02-28T08:04:24;101887.34;;;3.59;nan
62800;BME280;48842;51.046;13.796;2023-02-28T08:06:50;101889.31;;;3.63;nan
62800;BME280;48842;51.046;13.796;2023-02-28T08:09:18;101882.63;;;3.66;nan
62800;BME280;48842;51.046;13.796;2023-02-28T08:11:43;101891.56;;;3.72;nan
62800;BME280;48842;51.046;13.796;2023-02-28T08:14:08;101879.56;;;3.74;nan
62800;BME280;48842;51.046;13.796;2023-02-28T08:16:34;101884.94;;;3.77;nan
62800;BME280;48842;51.046;13.796;2023-02-28T08:18:59;101883.16;;;3.76;nan
62800;BME280;48842;51.046;13.796;2023-02-28T08:21:24;101882.53;;;3.80;nan
62800;BME280;48842;51.046;13.796;2023-02-28T08:23:50;101880.19;;;3.84;nan
62800;BME280;48842;51.046;13.796;2023-02-28T08:26:19;101892.22;;;3.84;nan
62800;BME280;48842;51.046;13.796;2023-02-28T08:28:45;101886.41;;;3.88;nan
62800;BME280;48842;51.046;13.796;2023-02-28T08:31:12;101886.88;;;3.96;nan
62800;BME280;48842;51.046;13.796;2023-02-28T08:33:39;101893.28;;;4.02;nan
62800;BME280;48842;51.046;13.796;2023-02-28T08:36:05;101893.06;;;4.14;nan
62800;BME280;48842;51.046;13.796;2023-02-28T08:38:31;101890.25;;;4.26;nan
62800;BME280;48842;51.046;13.796;2023-02-28T08:40:58;101895.25;;;4.38;nan
62800;BME280;48842;51.046;13.796;2023-02-28T08:43:24;101886.25;;;4.48;nan
62800;BME280;48842;51.046;13.796;2023-02-28T08:45:51;101888.34;;;4.55;nan
62800;BME280;48842;51.046;13.796;2023-02-28T08:48:17;101890.72;;;4.67;nan
62800;BME280;48842;51.046;13.796;2023-02-28T08:50:42;101889.50;;;4.77;nan
62800;BME280;48842;51.046;13.796;2023-02-28T08:53:07;101885.53;;;4.83;nan
62800;BME280;48842;51.046;13.796;2023-02-28T08:55:33;101885.13;;;4.92;nan
62800;BME280;48842;51.046;13.796;2023-02-28T08:57:58;101886.31;;;4.99;nan
62800;BME280;48842;51.046;13.796;2023-02-28T09:00:23;101890.78;;;5.01;nan
62800;BME280;48842;51.046;13.796;2023-02-28T09:02:48;101885.09;;;5.09;nan
62800;BME280;48842;51.046;13.796;2023-02-28T09:05:14;101885.56;;;5.18;nan
62800;BME280;48842;51.046;13.796;2023-02-28T09:07:39;101879.06;;;5.26;nan
62800;BME280;48842;51.046;13.796;2023-02-28T09:10:04;101880.41;;;5.36;nan
62800;BME280;48842;51.046;13.796;2023-02-28T09:12:33;101881.63;;;5.42;nan
62800;BME280;48842;51.046;13.796;2023-02-28T09:14:59;101883.06;;;5.54;nan
62800;BME280;48842;51.046;13.796;2023-02-28T09:17:24;101883.63;;;5.66;nan
62800;BME280;48842;51.046;13.796;2023-02-28T09:19:50;101887.66;;;5.77;nan
62800;BME280;48842;51.046;13.796;2023-02-28T09:22:15;101874.94;;;5.84;nan
62800;BME280;48842;51.046;13.796;2023-02-28T09:24:41;101881.22;;;5.87;nan
62800;BME280;48842;51.046;13.796;2023-02-28T09:27:06;101877.69;;;5.87;nan
62800;BME280;48842;51.046;13.796;2023-02-28T09:29:34;101873.19;;;5.83;nan
62800;BME280;48842;51.046;13.796;2023-02-28T09:31:59;101881.66;;;5.79;nan
62800;BME280;48842;51.046;13.796;2023-02-28T09:34:26;101876.31;;;5.75;nan
62800;BME280;48842;51.046;13.796;2023-02-28T09:36:52;101871.03;;;5.74;nan
62800;BME280;48842;51.046;13.796;2023-02-28T09:39:20;101865.59;;;5.69;nan
62800;BME280;48842;51.046;13.796;2023-02-28T09:41:48;101867.31;;;5.69;nan
62800;BME280;48842;51.046;13.796;2023-02-28T09:44:22;101866.22;;;5.64;nan
62800;BME280;48842;51.046;13.796;2023-02-28T09:46:55;101876.34;;;5.59;nan
62800;BME280;48842;51.046;13.796;2023-02-28T09:49:24;101871.00;;;5.56;nan
62800;BME280;48842;51.046;13.796;2023-02-28T09:51:57;101873.47;;;5.53;nan
62800;BME280;48842;51.046;13.796;2023-02-28T09:54:28;101878.59;;;5.51;nan
62800;BME280;48842;51.046;13.796;2023-02-28T09:57:01;101883.13;;;5.55;nan
62800;BME280;48842;51.046;13.796;2023-02-28T09:59:41;101875.56;;;5.60;nan
62800;BME280;48842;51.046;13.796;2023-02-28T10:04:47;101876.22;;;5.56;nan
62800;BME280;48842;51.046;13.796;2023-02-28T10:09:47;101880.44;;;5.54;nan
62800;BME280;48842;51.046;13.796;2023-02-28T10:12:15;101870.06;;;5.54;nan
62800;BME280;48842;51.046;13.796;2023-02-28T10:14:45;101869.41;;;5.58;nan
62800;BME280;48842;51.046;13.796;2023-02-28T10:17:22;101871.09;;;5.57;nan
62800;BME280;48842;51.046;13.796;2023-02-28T10:22:28;101868.47;;;5.57;nan
62800;BME280;48842;51.046;13.796;2023-02-28T10:24:55;101876.88;;;5.52;nan
62800;BME280;48842;51.046;13.796;2023-02-28T10:27:30;101877.63;;;5.49;nan
62800;BME280;48842;51.046;13.796;2023-02-28T10:29:58;101880.44;;;5.54;nan
62800;BME280;48842;51.046;13.796;2023-02-28T10:32:30;101873.75;;;5.59;nan
62800;BME280;48842;51.046;13.796;2023-02-28T10:37:34;101876.38;;;5.77;nan
62800;BME280;48842;51.046;13.796;2023-02-28T10:40:07;101879.13;;;5.80;nan
62800;BME280;48842;51.046;13.796;2023-02-28T10:42:55;101872.13;;;5.79;nan
62800;BME280;48842;51.046;13.796;2023-02-28T10:45:22;101875.53;;;5.78;nan
62800;BME280;48842;51.046;13.796;2023-02-28T10:48:01;101866.66;;;5.73;nan
62800;BME280;48842;51.046;13.796;2023-02-28T10:50:35;101867.53;;;5.73;nan
62800;BME280;48842;51.046;13.796;2023-02-28T10:58:56;101855.81;;;5.82;nan
62800;BME280;48842;51.046;13.796;2023-02-28T11:04:00;101851.94;;;5.91;nan
62800;BME280;48842;51.046;13.796;2023-02-28T11:06:29;101848.75;;;5.97;nan
62800;BME280;48842;51.046;13.796;2023-02-28T11:08:58;101848.53;;;6.10;nan
62800;BME280;48842;51.046;13.796;2023-02-28T11:11:26;101843.75;;;6.20;nan
62800;BME280;48842;51.046;13.796;2023-02-28T11:13:54;101839.88;;;6.29;nan
62800;BME280;48842;51.046;13.796;2023-02-28T11:16:21;101842.28;;;6.44;nan
62800;BME280;48842;51.046;13.796;2023-02-28T11:18:52;101842.88;;;6.58;nan
62800;BME280;48842;51.046;13.796;2023-02-28T11:21:31;101832.34;;;6.75;nan
62800;BME280;48842;51.046;13.796;2023-02-28T11:24:04;101828.41;;;6.85;nan
62800;BME280;48842;51.046;13.796;2023-02-28T11:26:45;101823.41;;;6.89;nan
62800;BME280;48842;51.046;13.796;2023-02-28T11:29:17;101824.97;;;6.86;nan
62800;BME280;48842;51.046;13.796;2023-02-28T11:32:00;101820.41;;;6.80;nan
62800;BME280;48842;51.046;13.796;2023-02-28T11:34:27;101824.47;;;6.73;nan
62800;BME280;48842;51.046;13.796;2023-02-28T11:36:56;101820.81;;;6.70;nan
62800;BME280;48842;51.046;13.796;2023-02-28T11:39:23;101817.13;;;6.64;nan
62800;BME280;48842;51.046;13.796;2023-02-28T11:42:02;101818.56;;;6.58;nan
62800;BME280;48842;51.046;13.796;2023-02-28T11:47:19;101812.13;;;6.50;nan
62800;BME280;48842;51.046;13.796;2023-02-28T11:50:03;101805.00;;;6.45;nan
62800;BME280;48842;51.046;13.796;2023-02-28T11:55:31;101804.59;;;6.36;nan
62800;BME280;48842;51.046;13.796;2023-02-28T11:58:19;101805.44;;;6.35;nan
62800;BME280;48842;51.046;13.796;2023-02-28T12:06:33;101799.78;;;6.26;nan
62800;BME280;48842;51.046;13.796;2023-02-28T12:11:52;101799.78;;;6.26;nan
62800;BME280;48842;51.046;13.796;2023-02-28T12:17:25;101804.78;;;6.21;nan
62800;BME280;48842;51.046;13.796;2023-02-28T12:20:17;101809.13;;;6.21;nan
62800;BME280;48842;51.046;13.796;2023-02-28T12:22:53;101799.66;;;6.23;nan
62800;BME280;48842;51.046;13.796;2023-02-28T12:25:54;101800.31;;;6.19;nan
62800;BME280;48842;51.046;13.796;2023-02-28T12:28:26;101799.31;;;6.15;nan
62800;BME280;48842;51.046;13.796;2023-02-28T12:31:14;101803.31;;;6.26;nan
62800;BME280;48842;51.046;13.796;2023-02-28T12:33:47;101797.88;;;6.41;nan
62800;BME280;48842;51.046;13.796;2023-02-28T12:36:17;101794.25;;;6.57;nan
62800;BME280;48842;51.046;13.796;2023-02-28T12:39:03;101799.97;;;6.70;nan
62800;BME280;48842;51.046;13.796;2023-02-28T12:41:37;101801.28;;;6.79;nan
62800;BME280;48842;51.046;13.796;2023-02-28T12:44:09;101792.06;;;6.88;nan
62800;BME280;48842;51.046;13.796;2023-02-28T12:46:41;101785.66;;;7.01;nan
62800;BME280;48842;51.046;13.796;2023-02-28T12:51:59;101785.56;;;7.19;nan
62800;BME280;48842;51.046;13.796;2023-02-28T13:00:19;101785.69;;;7.22;nan
62800;BME280;48842;51.046;13.796;2023-02-28T13:05:35;101780.97;;;7.34;nan
62800;BME280;48842;51.046;13.796;2023-02-28T13:10:50;101778.88;;;7.46;nan
62800;BME280;48842;51.046;13.796;2023-02-28T13:13:29;101779.00;;;7.49;nan
62800;BME280;48842;51.046;13.796;2023-02-28T13:18:45;101776.84;;;7.39;nan
62800;BME280;48842;51.046;13.796;2023-02-28T13:21:28;101774.81;;;7.32;nan
62800;BME280;48842;51.046;13.796;2023-02-28T13:24:10;101775.38;;;7.25;nan
62800;BME280;48842;51.046;13.796;2023-02-28T13:29:21;101774.00;;;7.33;
62800;BME280;48842;51.046;13.796;2023-02-28T13:34:31;101772.81;;;7.47;nan
62800;BME280;48842;51.046;13.796;2023-02-28T13:37:30;101770.16;;;7.68;nan
62800;BME280;48842;51.046;13.796;2023-02-28T13:47:43;101746.47;;;9.64;nan
62800;BME280;48842;51.046;13.796;2023-02-28T13:56:07;101736.88;;;13.47;nan
62800;BME280;48842;51.046;13.796;2023-02-28T13:58:54;101725.84;;;14.51;nan
62800;BME280;48842;51.046;13.796;2023-02-28T14:01:45;101724.91;;;15.42;nan
62800;BME280;48842;51.046;13.796;2023-02-28T14:04:46;101730.53;;;16.10;nan
62800;BME280;48842;51.046;13.796;2023-02-28T14:07:36;101724.56;;;16.91;nan
62800;BME280;48842;51.046;13.796;2023-02-28T14:10:07;101723.56;;;17.65;nan
62800;BME280;48842;51.046;13.796;2023-02-28T14:15:49;101703.44;;;18.94;nan
62800;BME280;48842;51.046;13.796;2023-02-28T14:18:28;101701.28;;;19.36;nan
62800;BME280;48842;51.046;13.796;2023-02-28T14:20:58;101701.28;;;19.36;nan
62800;BME280;48842;51.046;13.796;2023-02-28T14:26:19;101679.59;;;20.95;nan
62800;BME280;48842;51.046;13.796;2023-02-28T14:29:19;101687.38;;;21.07;nan
62800;BME280;48842;51.046;13.796;2023-02-28T14:32:05;101680.06;;;21.17;nan
62800;BME280;48842;51.046;13.796;2023-02-28T14:34:43;101682.38;;;20.89;nan
62800;BME280;48842;51.046;13.796;2023-02-28T14:37:27;101687.09;;;20.12;nan
62800;BME280;48842;51.046;13.796;2023-02-28T14:39:54;101680.59;;;19.62;nan
62800;BME280;48842;51.046;13.796;2023-02-28T14:42:39;101687.50;;;18.96;nan
62800;BME280;48842;51.046;13.796;2023-02-28T14:45:18;101682.63;;;18.29;nan
62800;BME280;48842;51.046;13.796;2023-02-28T14:47:43;101689.13;;;17.70;nan
62800;BME280;48842;51.046;13.796;2023-02-28T14:50:22;101684.84;;;17.01;nan
62800;BME280;48842;51.046;13.796;2023-02-28T14:52:52;101690.06;;;16.33;nan
62800;BME280;48842;51.046;13.796;2023-02-28T14:55:19;101693.38;;;15.76;nan